sensor_id;sensor_type;location;lat;lon;timestamp;P1;durP1;ratioP1;P2;durP2;ratioP2
11313;SDS011;5712;48.858;9.206;2022-10-16T00:00:35;2.27;;;1.70;;
11313;SDS011;5712;48.858;9.206;2022-10-16T00:03:02;2.03;;;1.80;;
11313;SDS011;5712;48.858;9.206;2022-10-16T00:05:29;2.50;;;1.73;;
11313;SDS011;5712;48.858;9.206;2022-10-16T00:07:58;4.07;;;1.40;;
11313;SDS011;5712;48.858;9.206;2022-10-16T00:10:24;1.83;;;1.40;;
11313;SDS011;5712;48.858;9.206;2022-10-16T00:12:51;1.67;;;1.57;;
11313;SDS011;5712;48.858;9.206;2022-10-16T00:15:18;1.83;;;1.50;;
11313;SDS011;5712;48.858;9.206;2022-10-16T00:17:44;2.73;;;1.60;;
11313;SDS011;5712;48.858;9.206;2022-10-16T00:20:11;1.83;;;1.60;;
11313;SDS011;5712;48.858;9.206;2022-10-16T00:22:38;3.10;;;1.70;;
11313;SDS011;5712;48.858;9.206;2022-10-16T00:25:06;2.17;;;1.70;;
11313;SDS011;5712;48.858;9.206;2022-10-16T00:27:33;2.17;;;1.60;;
11313;SDS011;5712;48.858;9.206;2022-10-16T00:30:00;1.80;;;1.70;;
11313;SDS011;5712;48.858;9.206;2022-10-16T00:32:27;1.80;;;1.60;;
11313;SDS011;5712;48.858;9.206;2022-10-16T00:34:53;1.70;;;1.60;;
11313;SDS011;5712;48.858;9.206;2022-10-16T00:37:20;1.70;;;1.60;;
11313;SDS011;5712;48.858;9.206;2022-10-16T00:39:47;1.80;;;1.70;;
11313;SDS011;5712;48.858;9.206;2022-10-16T00:42:16;1.83;;;1.73;;
11313;SDS011;5712;48.858;9.206;2022-10-16T00:44:47;2.20;;;2.00;;
11313;SDS011;5712;48.858;9.206;2022-10-16T00:47:18;1.47;;;1.37;;
11313;SDS011;5712;48.858;9.206;2022-10-16T00:49:48;1.70;;;1.60;;
11313;SDS011;5712;48.858;9.206;2022-10-16T00:52:18;1.87;;;1.50;;
11313;SDS011;5712;48.858;9.206;2022-10-16T00:54:46;1.70;;;1.57;;
11313;SDS011;5712;48.858;9.206;2022-10-16T00:57:15;2.80;;;1.70;;
11313;SDS011;5712;48.858;9.206;2022-10-16T00:59:42;2.30;;;1.53;;
11313;SDS011;5712;48.858;9.206;2022-10-16T01:02:11;1.80;;;1.70;;
11313;SDS011;5712;48.858;9.206;2022-10-16T01:04:41;1.80;;;1.70;;
11313;SDS011;5712;48.858;9.206;2022-10-16T01:07:12;1.80;;;1.60;;
11313;SDS011;5712;48.858;9.206;2022-10-16T01:09:51;1.50;;;1.40;;
11313;SDS011;5712;48.858;9.206;2022-10-16T01:12:30;1.70;;;1.60;;
11313;SDS011;5712;48.858;9.206;2022-10-16T01:15:06;1.60;;;1.50;;
11313;SDS011;5712;48.858;9.206;2022-10-16T01:17:38;1.93;;;1.67;;
11313;SDS011;5712;48.858;9.206;2022-10-16T01:20:11;2.33;;;1.60;;
11313;SDS011;5712;48.858;9.206;2022-10-16T01:22:50;2.87;;;1.70;;
11313;SDS011;5712;48.858;9.206;2022-10-16T01:25:29;1.93;;;1.73;;
11313;SDS011;5712;48.858;9.206;2022-10-16T01:28:04;1.63;;;1.50;;
11313;SDS011;5712;48.858;9.206;2022-10-16T01:30:34;1.73;;;1.50;;
11313;SDS011;5712;48.858;9.206;2022-10-16T01:33:02;2.97;;;1.70;;
11313;SDS011;5712;48.858;9.206;2022-10-16T01:35:36;1.90;;;1.70;;
11313;SDS011;5712;48.858;9.206;2022-10-16T01:38:08;2.10;;;1.90;;
11313;SDS011;5712;48.858;9.206;2022-10-16T01:40:39;2.80;;;1.90;;
11313;SDS011;5712;48.858;9.206;2022-10-16T01:43:12;1.97;;;1.63;;
11313;SDS011;5712;48.858;9.206;2022-10-16T01:45:45;1.93;;;1.73;;
11313;SDS011;5712;48.858;9.206;2022-10-16T01:48:12;3.03;;;1.80;;
11313;SDS011;5712;48.858;9.206;2022-10-16T01:50:43;2.40;;;1.70;;
11313;SDS011;5712;48.858;9.206;2022-10-16T01:53:15;1.63;;;1.53;;
11313;SDS011;5712;48.858;9.206;2022-10-16T01:55:44;2.43;;;2.10;;
11313;SDS011;5712;48.858;9.206;2022-10-16T01:58:15;1.70;;;1.60;;
11313;SDS011;5712;48.858;9.206;2022-10-16T02:00:42;1.90;;;1.70;;
11313;SDS011;5712;48.858;9.206;2022-10-16T02:03:12;2.00;;;1.80;;
11313;SDS011;5712;48.858;9.206;2022-10-16T02:05:42;2.70;;;1.80;;
11313;SDS011;5712;48.858;9.206;2022-10-16T02:08:12;2.00;;;1.80;;
11313;SDS011;5712;48.858;9.206;2022-10-16T02:10:40;2.93;;;1.90;;
11313;SDS011;5712;48.858;9.206;2022-10-16T02:13:08;2.00;;;1.80;;
11313;SDS011;5712;48.858;9.206;2022-10-16T02:15:39;2.20;;;2.00;;
11313;SDS011;5712;48.858;9.206;2022-10-16T02:18:06;3.10;;;1.90;;
11313;SDS011;5712;48.858;9.206;2022-10-16T02:20:36;2.50;;;2.00;;
11313;SDS011;5712;48.858;9.206;2022-10-16T02:23:09;1.90;;;1.80;;
11313;SDS011;5712;48.858;9.206;2022-10-16T02:25:42;2.10;;;1.70;;
11313;SDS011;5712;48.858;9.206;2022-10-16T02:28:13;1.80;;;1.70;;
11313;SDS011;5712;48.858;9.206;2022-10-16T02:30:48;2.80;;;2.10;;
11313;SDS011;5712;48.858;9.206;2022-10-16T02:33:17;2.97;;;1.90;;
11313;SDS011;5712;48.858;9.206;2022-10-16T02:35:46;1.80;;;1.70;;
11313;SDS011;5712;48.858;9.206;2022-10-16T02:38:16;1.93;;;1.60;;
11313;SDS011;5712;48.858;9.206;2022-10-16T02:40:44;3.27;;;1.80;;
11313;SDS011;5712;48.858;9.206;2022-10-16T02:43:11;2.10;;;1.90;;
11313;SDS011;5712;48.858;9.206;2022-10-16T02:45:38;2.10;;;1.90;;
11313;SDS011;5712;48.858;9.206;2022-10-16T02:48:06;2.10;;;1.90;;
11313;SDS011;5712;48.858;9.206;2022-10-16T02:50:33;1.83;;;1.73;;
11313;SDS011;5712;48.858;9.206;2022-10-16T02:53:00;2.60;;;1.70;;
11313;SDS011;5712;48.858;9.206;2022-10-16T02:55:27;2.87;;;1.83;;
11313;SDS011;5712;48.858;9.206;2022-10-16T02:57:54;2.33;;;1.83;;
11313;SDS011;5712;48.858;9.206;2022-10-16T03:00:20;2.20;;;2.00;;
11313;SDS011;5712;48.858;9.206;2022-10-16T03:02:47;2.00;;;1.73;;
11313;SDS011;5712;48.858;9.206;2022-10-16T03:05:15;2.17;;;1.90;;
11313;SDS011;5712;48.858;9.206;2022-10-16T03:07:42;2.37;;;1.73;;
11313;SDS011;5712;48.858;9.206;2022-10-16T03:10:09;2.03;;;1.57;;
11313;SDS011;5712;48.858;9.206;2022-10-16T03:12:35;2.63;;;1.80;;
11313;SDS011;5712;48.858;9.206;2022-10-16T03:15:02;2.07;;;1.80;;
11313;SDS011;5712;48.858;9.206;2022-10-16T03:17:29;2.17;;;1.90;;
11313;SDS011;5712;48.858;9.206;2022-10-16T03:19:58;2.97;;;1.90;;
11313;SDS011;5712;48.858;9.206;2022-10-16T03:22:26;3.47;;;1.90;;
11313;SDS011;5712;48.858;9.206;2022-10-16T03:24:52;2.00;;;1.80;;
11313;SDS011;5712;48.858;9.206;2022-10-16T03:27:19;2.03;;;1.80;;
11313;SDS011;5712;48.858;9.206;2022-10-16T03:29:46;1.97;;;1.87;;
11313;SDS011;5712;48.858;9.206;2022-10-16T03:32:13;2.63;;;1.70;;
11313;SDS011;5712;48.858;9.206;2022-10-16T03:34:40;1.87;;;1.77;;
11313;SDS011;5712;48.858;9.206;2022-10-16T03:37:06;1.90;;;1.63;;
11313;SDS011;5712;48.858;9.206;2022-10-16T03:39:34;3.87;;;2.20;;
11313;SDS011;5712;48.858;9.206;2022-10-16T03:42:01;1.83;;;1.73;;
11313;SDS011;5712;48.858;9.206;2022-10-16T03:44:27;2.70;;;2.23;;
11313;SDS011;5712;48.858;9.206;2022-10-16T03:46:54;2.00;;;1.80;;
11313;SDS011;5712;48.858;9.206;2022-10-16T03:49:21;1.70;;;1.60;;
11313;SDS011;5712;48.858;9.206;2022-10-16T03:51:47;1.80;;;1.70;;
11313;SDS011;5712;48.858;9.206;2022-10-16T03:54:14;6.87;;;2.70;;
11313;SDS011;5712;48.858;9.206;2022-10-16T03:56:42;3.20;;;1.80;;
11313;SDS011;5712;48.858;9.206;2022-10-16T03:59:09;2.03;;;1.77;;
11313;SDS011;5712;48.858;9.206;2022-10-16T04:01:35;2.80;;;1.80;;
11313;SDS011;5712;48.858;9.206;2022-10-16T04:04:02;2.00;;;1.63;;
11313;SDS011;5712;48.858;9.206;2022-10-16T04:06:28;1.93;;;1.83;;
11313;SDS011;5712;48.858;9.206;2022-10-16T04:08:55;2.20;;;1.60;;
11313;SDS011;5712;48.858;9.206;2022-10-16T04:11:22;1.77;;;1.63;;
11313;SDS011;5712;48.858;9.206;2022-10-16T04:13:50;2.40;;;2.20;;
11313;SDS011;5712;48.858;9.206;2022-10-16T04:16:16;3.07;;;1.97;;
11313;SDS011;5712;48.858;9.206;2022-10-16T04:18:43;3.90;;;2.07;;
11313;SDS011;5712;48.858;9.206;2022-10-16T04:21:10;1.97;;;1.83;;
11313;SDS011;5712;48.858;9.206;2022-10-16T04:23:36;2.37;;;2.00;;
11313;SDS011;5712;48.858;9.206;2022-10-16T04:26:03;3.63;;;1.90;;
11313;SDS011;5712;48.858;9.206;2022-10-16T04:28:30;2.30;;;2.00;;
11313;SDS011;5712;48.858;9.206;2022-10-16T04:30:58;1.80;;;1.70;;
11313;SDS011;5712;48.858;9.206;2022-10-16T04:33:24;1.90;;;1.77;;
11313;SDS011;5712;48.858;9.206;2022-10-16T04:35:55;2.10;;;1.90;;
11313;SDS011;5712;48.858;9.206;2022-10-16T04:38:22;2.00;;;1.83;;
11313;SDS011;5712;48.858;9.206;2022-10-16T04:40:49;2.23;;;1.93;;
11313;SDS011;5712;48.858;9.206;2022-10-16T04:43:16;2.17;;;1.87;;
11313;SDS011;5712;48.858;9.206;2022-10-16T04:45:42;2.20;;;1.90;;
11313;SDS011;5712;48.858;9.206;2022-10-16T04:48:10;2.90;;;1.73;;
11313;SDS011;5712;48.858;9.206;2022-10-16T04:50:37;2.10;;;1.83;;
11313;SDS011;5712;48.858;9.206;2022-10-16T04:53:04;2.07;;;1.80;;
11313;SDS011;5712;48.858;9.206;2022-10-16T04:55:31;2.43;;;1.90;;
11313;SDS011;5712;48.858;9.206;2022-10-16T04:57:58;2.50;;;2.00;;
11313;SDS011;5712;48.858;9.206;2022-10-16T05:00:24;2.00;;;1.73;;
11313;SDS011;5712;48.858;9.206;2022-10-16T05:02:51;2.20;;;1.53;;
11313;SDS011;5712;48.858;9.206;2022-10-16T05:05:19;1.63;;;1.50;;
11313;SDS011;5712;48.858;9.206;2022-10-16T05:07:46;2.27;;;1.80;;
11313;SDS011;5712;48.858;9.206;2022-10-16T05:10:14;2.20;;;1.57;;
11313;SDS011;5712;48.858;9.206;2022-10-16T05:12:41;1.70;;;1.60;;
11313;SDS011;5712;48.858;9.206;2022-10-16T05:15:08;1.77;;;1.60;;
11313;SDS011;5712;48.858;9.206;2022-10-16T05:17:35;1.70;;;1.60;;
11313;SDS011;5712;48.858;9.206;2022-10-16T05:20:02;2.67;;;1.70;;
11313;SDS011;5712;48.858;9.206;2022-10-16T05:22:31;1.67;;;1.57;;
11313;SDS011;5712;48.858;9.206;2022-10-16T05:24:57;1.50;;;1.40;;
11313;SDS011;5712;48.858;9.206;2022-10-16T05:27:24;1.50;;;1.40;;
11313;SDS011;5712;48.858;9.206;2022-10-16T05:29:50;1.83;;;1.73;;
11313;SDS011;5712;48.858;9.206;2022-10-16T05:32:17;2.30;;;1.47;;
11313;SDS011;5712;48.858;9.206;2022-10-16T05:34:45;3.00;;;1.70;;
11313;SDS011;5712;48.858;9.206;2022-10-16T05:37:12;2.90;;;1.70;;
11313;SDS011;5712;48.858;9.206;2022-10-16T05:39:40;1.50;;;1.40;;
11313;SDS011;5712;48.858;9.206;2022-10-16T05:42:07;2.23;;;1.40;;
11313;SDS011;5712;48.858;9.206;2022-10-16T05:44:33;1.70;;;1.60;;
11313;SDS011;5712;48.858;9.206;2022-10-16T05:47:00;1.70;;;1.60;;
11313;SDS011;5712;48.858;9.206;2022-10-16T05:49:27;1.97;;;1.83;;
11313;SDS011;5712;48.858;9.206;2022-10-16T05:51:53;2.80;;;1.80;;
11313;SDS011;5712;48.858;9.206;2022-10-16T05:54:20;2.00;;;1.70;;
11313;SDS011;5712;48.858;9.206;2022-10-16T05:56:48;2.30;;;2.00;;
11313;SDS011;5712;48.858;9.206;2022-10-16T05:59:15;2.27;;;2.03;;
11313;SDS011;5712;48.858;9.206;2022-10-16T06:01:41;2.37;;;2.00;;
11313;SDS011;5712;48.858;9.206;2022-10-16T06:04:08;2.20;;;2.00;;
11313;SDS011;5712;48.858;9.206;2022-10-16T06:06:35;2.80;;;2.10;;
11313;SDS011;5712;48.858;9.206;2022-10-16T06:09:02;3.17;;;2.13;;
11313;SDS011;5712;48.858;9.206;2022-10-16T06:11:30;2.20;;;2.00;;
11313;SDS011;5712;48.858;9.206;2022-10-16T06:14:00;2.53;;;2.13;;
11313;SDS011;5712;48.858;9.206;2022-10-16T06:16:31;2.53;;;2.07;;
11313;SDS011;5712;48.858;9.206;2022-10-16T06:18:59;2.07;;;1.97;;
11313;SDS011;5712;48.858;9.206;2022-10-16T06:21:26;1.87;;;1.77;;
11313;SDS011;5712;48.858;9.206;2022-10-16T06:23:53;2.30;;;2.10;;
11313;SDS011;5712;48.858;9.206;2022-10-16T06:26:22;2.87;;;2.10;;
11313;SDS011;5712;48.858;9.206;2022-10-16T06:28:50;2.83;;;1.80;;
11313;SDS011;5712;48.858;9.206;2022-10-16T06:31:19;2.20;;;2.00;;
11313;SDS011;5712;48.858;9.206;2022-10-16T06:33:49;3.03;;;2.17;;
11313;SDS011;5712;48.858;9.206;2022-10-16T06:36:17;2.30;;;2.03;;
11313;SDS011;5712;48.858;9.206;2022-10-16T06:38:44;4.27;;;2.20;;
11313;SDS011;5712;48.858;9.206;2022-10-16T06:41:11;2.27;;;2.07;;
11313;SDS011;5712;48.858;9.206;2022-10-16T06:43:39;1.93;;;1.80;;
11313;SDS011;5712;48.858;9.206;2022-10-16T06:46:06;1.90;;;1.80;;
11313;SDS011;5712;48.858;9.206;2022-10-16T06:48:36;2.00;;;1.80;;
11313;SDS011;5712;48.858;9.206;2022-10-16T06:51:04;2.20;;;2.00;;
11313;SDS011;5712;48.858;9.206;2022-10-16T06:53:33;2.20;;;2.00;;
11313;SDS011;5712;48.858;9.206;2022-10-16T06:56:06;2.47;;;2.00;;
11313;SDS011;5712;48.858;9.206;2022-10-16T06:58:33;2.23;;;1.87;;
11313;SDS011;5712;48.858;9.206;2022-10-16T07:01:00;2.13;;;1.80;;
11313;SDS011;5712;48.858;9.206;2022-10-16T07:03:26;2.30;;;2.10;;
11313;SDS011;5712;48.858;9.206;2022-10-16T07:05:55;2.60;;;1.90;;
11313;SDS011;5712;48.858;9.206;2022-10-16T07:08:21;3.47;;;2.10;;
11313;SDS011;5712;48.858;9.206;2022-10-16T07:10:48;2.37;;;2.17;;
11313;SDS011;5712;48.858;9.206;2022-10-16T07:13:15;2.10;;;1.90;;
11313;SDS011;5712;48.858;9.206;2022-10-16T07:15:41;2.43;;;1.73;;
11313;SDS011;5712;48.858;9.206;2022-10-16T07:18:08;2.07;;;1.60;;
11313;SDS011;5712;48.858;9.206;2022-10-16T07:20:35;1.83;;;1.70;;
11313;SDS011;5712;48.858;9.206;2022-10-16T07:23:03;3.93;;;2.07;;
11313;SDS011;5712;48.858;9.206;2022-10-16T07:25:30;2.43;;;2.10;;
11313;SDS011;5712;48.858;9.206;2022-10-16T07:27:57;2.30;;;2.10;;
11313;SDS011;5712;48.858;9.206;2022-10-16T07:30:23;3.73;;;2.33;;
11313;SDS011;5712;48.858;9.206;2022-10-16T07:32:50;2.90;;;2.60;;
11313;SDS011;5712;48.858;9.206;2022-10-16T07:35:16;2.20;;;2.00;;
11313;SDS011;5712;48.858;9.206;2022-10-16T07:37:44;1.97;;;1.80;;
11313;SDS011;5712;48.858;9.206;2022-10-16T07:40:12;1.93;;;1.83;;
11313;SDS011;5712;48.858;9.206;2022-10-16T07:42:39;2.20;;;1.90;;
11313;SDS011;5712;48.858;9.206;2022-10-16T07:45:06;1.80;;;1.70;;
11313;SDS011;5712;48.858;9.206;2022-10-16T07:47:33;2.20;;;2.00;;
11313;SDS011;5712;48.858;9.206;2022-10-16T07:49:59;2.30;;;1.87;;
11313;SDS011;5712;48.858;9.206;2022-10-16T07:52:26;2.80;;;2.20;;
11313;SDS011;5712;48.858;9.206;2022-10-16T07:54:53;2.63;;;1.73;;
11313;SDS011;5712;48.858;9.206;2022-10-16T07:57:21;2.70;;;2.00;;
11313;SDS011;5712;48.858;9.206;2022-10-16T07:59:47;3.90;;;1.80;;
11313;SDS011;5712;48.858;9.206;2022-10-16T08:02:14;2.37;;;1.80;;
11313;SDS011;5712;48.858;9.206;2022-10-16T08:04:41;2.13;;;1.80;;
11313;SDS011;5712;48.858;9.206;2022-10-16T08:07:07;2.30;;;2.00;;
11313;SDS011;5712;48.858;9.206;2022-10-16T08:09:34;2.90;;;2.00;;
11313;SDS011;5712;48.858;9.206;2022-10-16T08:12:01;5.03;;;2.80;;
11313;SDS011;5712;48.858;9.206;2022-10-16T08:14:30;2.90;;;2.60;;
11313;SDS011;5712;48.858;9.206;2022-10-16T08:16:57;3.23;;;2.33;;
11313;SDS011;5712;48.858;9.206;2022-10-16T08:19:24;3.20;;;2.80;;
11313;SDS011;5712;48.858;9.206;2022-10-16T08:21:50;4.03;;;2.80;;
11313;SDS011;5712;48.858;9.206;2022-10-16T08:24:17;3.57;;;3.27;;
11313;SDS011;5712;48.858;9.206;2022-10-16T08:26:44;4.03;;;3.00;;
11313;SDS011;5712;48.858;9.206;2022-10-16T08:29:10;3.50;;;2.27;;
11313;SDS011;5712;48.858;9.206;2022-10-16T08:31:38;4.00;;;1.93;;
11313;SDS011;5712;48.858;9.206;2022-10-16T08:34:05;2.60;;;1.80;;
11313;SDS011;5712;48.858;9.206;2022-10-16T08:36:31;2.00;;;1.60;;
11313;SDS011;5712;48.858;9.206;2022-10-16T08:38:58;1.97;;;1.60;;
11313;SDS011;5712;48.858;9.206;2022-10-16T08:44:38;2.10;;;1.50;;
11313;SDS011;5712;48.858;9.206;2022-10-16T08:47:16;1.77;;;1.63;;
11313;SDS011;5712;48.858;9.206;2022-10-16T08:49:49;2.43;;;1.80;;
11313;SDS011;5712;48.858;9.206;2022-10-16T08:52:23;1.90;;;1.80;;
11313;SDS011;5712;48.858;9.206;2022-10-16T08:54:55;1.70;;;1.60;;
11313;SDS011;5712;48.858;9.206;2022-10-16T08:57:22;2.47;;;1.40;;
11313;SDS011;5712;48.858;9.206;2022-10-16T08:59:51;2.00;;;1.70;;
11313;SDS011;5712;48.858;9.206;2022-10-16T09:02:24;2.60;;;1.63;;
11313;SDS011;5712;48.858;9.206;2022-10-16T09:04:58;2.70;;;1.60;;
11313;SDS011;5712;48.858;9.206;2022-10-16T09:07:43;1.85;;;1.60;;
11313;SDS011;5712;48.858;9.206;2022-10-16T09:10:21;2.00;;;1.80;;
11313;SDS011;5712;48.858;9.206;2022-10-16T09:13:00;1.77;;;1.60;;
11313;SDS011;5712;48.858;9.206;2022-10-16T09:15:39;1.57;;;1.43;;
11313;SDS011;5712;48.858;9.206;2022-10-16T09:18:15;2.83;;;1.70;;
11313;SDS011;5712;48.858;9.206;2022-10-16T09:20:49;2.43;;;1.60;;
11313;SDS011;5712;48.858;9.206;2022-10-16T09:23:18;2.87;;;1.73;;
11313;SDS011;5712;48.858;9.206;2022-10-16T09:25:51;1.60;;;1.50;;
11313;SDS011;5712;48.858;9.206;2022-10-16T09:28:20;1.77;;;1.40;;
11313;SDS011;5712;48.858;9.206;2022-10-16T09:30:47;2.50;;;1.60;;
11313;SDS011;5712;48.858;9.206;2022-10-16T09:33:17;1.60;;;1.40;;
11313;SDS011;5712;48.858;9.206;2022-10-16T09:35:45;4.17;;;1.50;;
11313;SDS011;5712;48.858;9.206;2022-10-16T09:38:22;2.30;;;1.40;;
11313;SDS011;5712;48.858;9.206;2022-10-16T09:40:53;1.70;;;1.60;;
11313;SDS011;5712;48.858;9.206;2022-10-16T09:43:22;2.77;;;1.67;;
11313;SDS011;5712;48.858;9.206;2022-10-16T09:45:56;1.40;;;1.30;;
11313;SDS011;5712;48.858;9.206;2022-10-16T09:48:26;2.60;;;1.50;;
11313;SDS011;5712;48.858;9.206;2022-10-16T09:50:57;2.80;;;1.20;;
11313;SDS011;5712;48.858;9.206;2022-10-16T09:53:25;2.63;;;1.60;;
11313;SDS011;5712;48.858;9.206;2022-10-16T09:56:04;3.43;;;1.47;;
11313;SDS011;5712;48.858;9.206;2022-10-16T09:58:31;1.67;;;1.57;;
11313;SDS011;5712;48.858;9.206;2022-10-16T10:00:58;1.60;;;1.50;;
11313;SDS011;5712;48.858;9.206;2022-10-16T10:03:36;1.50;;;1.40;;
11313;SDS011;5712;48.858;9.206;2022-10-16T10:06:06;1.87;;;1.73;;
11313;SDS011;5712;48.858;9.206;2022-10-16T10:08:52;2.13;;;1.43;;
11313;SDS011;5712;48.858;9.206;2022-10-16T10:14:04;4.10;;;1.57;;
11313;SDS011;5712;48.858;9.206;2022-10-16T10:16:31;2.53;;;1.50;;
11313;SDS011;5712;48.858;9.206;2022-10-16T10:18:59;2.40;;;1.50;;
11313;SDS011;5712;48.858;9.206;2022-10-16T10:21:26;2.10;;;1.43;;
11313;SDS011;5712;48.858;9.206;2022-10-16T10:23:55;1.60;;;1.23;;
11313;SDS011;5712;48.858;9.206;2022-10-16T10:26:23;1.50;;;1.40;;
11313;SDS011;5712;48.858;9.206;2022-10-16T10:28:55;1.97;;;1.43;;
11313;SDS011;5712;48.858;9.206;2022-10-16T10:31:32;1.63;;;1.50;;
11313;SDS011;5712;48.858;9.206;2022-10-16T10:34:11;1.40;;;1.30;;
11313;SDS011;5712;48.858;9.206;2022-10-16T10:37:04;2.33;;;1.50;;
11313;SDS011;5712;48.858;9.206;2022-10-16T10:39:53;2.00;;;1.70;;
11313;SDS011;5712;48.858;9.206;2022-10-16T10:42:27;1.50;;;1.40;;
11313;SDS011;5712;48.858;9.206;2022-10-16T10:45:04;1.37;;;1.20;;
11313;SDS011;5712;48.858;9.206;2022-10-16T10:47:45;1.57;;;1.20;;
11313;SDS011;5712;48.858;9.206;2022-10-16T10:50:24;1.63;;;1.20;;
11313;SDS011;5712;48.858;9.206;2022-10-16T10:52:58;2.03;;;1.60;;
11313;SDS011;5712;48.858;9.206;2022-10-16T10:55:33;2.50;;;1.40;;
11313;SDS011;5712;48.858;9.206;2022-10-16T10:58:19;2.37;;;1.20;;
11313;SDS011;5712;48.858;9.206;2022-10-16T11:01:04;2.07;;;1.07;;
11313;SDS011;5712;48.858;9.206;2022-10-16T11:03:40;1.47;;;1.30;;
11313;SDS011;5712;48.858;9.206;2022-10-16T11:06:23;1.97;;;1.40;;
11313;SDS011;5712;48.858;9.206;2022-10-16T11:08:56;1.80;;;1.43;;
11313;SDS011;5712;48.858;9.206;2022-10-16T11:11:29;1.30;;;1.20;;
11313;SDS011;5712;48.858;9.206;2022-10-16T11:14:02;2.30;;;1.30;;
11313;SDS011;5712;48.858;9.206;2022-10-16T11:16:33;1.70;;;1.60;;
11313;SDS011;5712;48.858;9.206;2022-10-16T11:19:04;1.97;;;1.50;;
11313;SDS011;5712;48.858;9.206;2022-10-16T11:21:42;2.43;;;1.40;;
11313;SDS011;5712;48.858;9.206;2022-10-16T11:24:16;2.73;;;1.60;;
11313;SDS011;5712;48.858;9.206;2022-10-16T11:26:47;1.77;;;1.63;;
11313;SDS011;5712;48.858;9.206;2022-10-16T11:29:16;1.40;;;1.23;;
11313;SDS011;5712;48.858;9.206;2022-10-16T11:31:50;2.17;;;1.40;;
11313;SDS011;5712;48.858;9.206;2022-10-16T11:34:21;1.80;;;1.50;;
11313;SDS011;5712;48.858;9.206;2022-10-16T11:36:53;1.30;;;1.13;;
11313;SDS011;5712;48.858;9.206;2022-10-16T11:39:26;1.40;;;1.23;;
11313;SDS011;5712;48.858;9.206;2022-10-16T11:41:55;1.10;;;1.07;;
11313;SDS011;5712;48.858;9.206;2022-10-16T11:44:38;1.80;;;1.30;;
11313;SDS011;5712;48.858;9.206;2022-10-16T11:47:19;2.43;;;1.20;;
11313;SDS011;5712;48.858;9.206;2022-10-16T11:49:53;1.53;;;1.40;;
11313;SDS011;5712;48.858;9.206;2022-10-16T11:52:30;1.40;;;1.30;;
11313;SDS011;5712;48.858;9.206;2022-10-16T11:55:04;1.83;;;1.33;;
11313;SDS011;5712;48.858;9.206;2022-10-16T11:57:40;2.60;;;1.10;;
11313;SDS011;5712;48.858;9.206;2022-10-16T12:00:14;1.50;;;1.40;;
11313;SDS011;5712;48.858;9.206;2022-10-16T12:02:50;2.17;;;1.37;;
11313;SDS011;5712;48.858;9.206;2022-10-16T12:05:26;4.17;;;1.13;;
11313;SDS011;5712;48.858;9.206;2022-10-16T12:08:06;1.40;;;1.30;;
11313;SDS011;5712;48.858;9.206;2022-10-16T12:10:36;1.60;;;1.40;;
11313;SDS011;5712;48.858;9.206;2022-10-16T12:13:04;1.70;;;1.60;;
11313;SDS011;5712;48.858;9.206;2022-10-16T12:15:51;2.60;;;1.67;;
11313;SDS011;5712;48.858;9.206;2022-10-16T12:18:21;1.43;;;1.30;;
11313;SDS011;5712;48.858;9.206;2022-10-16T12:20:54;2.77;;;1.40;;
11313;SDS011;5712;48.858;9.206;2022-10-16T12:23:25;1.50;;;1.20;;
11313;SDS011;5712;48.858;9.206;2022-10-16T12:25:53;1.23;;;1.13;;
11313;SDS011;5712;48.858;9.206;2022-10-16T12:28:21;1.73;;;1.30;;
11313;SDS011;5712;48.858;9.206;2022-10-16T12:30:52;1.47;;;1.30;;
11313;SDS011;5712;48.858;9.206;2022-10-16T12:33:22;1.63;;;1.33;;
11313;SDS011;5712;48.858;9.206;2022-10-16T12:35:51;2.60;;;1.40;;
11313;SDS011;5712;48.858;9.206;2022-10-16T12:38:18;2.00;;;1.20;;
11313;SDS011;5712;48.858;9.206;2022-10-16T12:40:55;2.40;;;1.37;;
11313;SDS011;5712;48.858;9.206;2022-10-16T12:43:26;2.13;;;1.37;;
11313;SDS011;5712;48.858;9.206;2022-10-16T12:46:03;2.07;;;1.30;;
11313;SDS011;5712;48.858;9.206;2022-10-16T12:48:31;1.53;;;1.23;;
11313;SDS011;5712;48.858;9.206;2022-10-16T12:51:09;1.87;;;1.43;;
11313;SDS011;5712;48.858;9.206;2022-10-16T12:53:36;1.93;;;1.20;;
11313;SDS011;5712;48.858;9.206;2022-10-16T12:56:16;1.83;;;1.30;;
11313;SDS011;5712;48.858;9.206;2022-10-16T12:58:56;1.40;;;1.30;;
11313;SDS011;5712;48.858;9.206;2022-10-16T13:01:36;1.73;;;1.20;;
11313;SDS011;5712;48.858;9.206;2022-10-16T13:07:03;1.83;;;1.20;;
11313;SDS011;5712;48.858;9.206;2022-10-16T13:09:49;1.47;;;1.37;;
11313;SDS011;5712;48.858;9.206;2022-10-16T13:12:31;1.47;;;1.30;;
11313;SDS011;5712;48.858;9.206;2022-10-16T13:15:19;1.20;;;1.10;;
11313;SDS011;5712;48.858;9.206;2022-10-16T13:17:55;1.30;;;1.17;;
11313;SDS011;5712;48.858;9.206;2022-10-16T13:20:32;1.63;;;1.30;;
11313;SDS011;5712;48.858;9.206;2022-10-16T13:23:08;2.17;;;1.40;;
11313;SDS011;5712;48.858;9.206;2022-10-16T13:25:44;3.63;;;1.87;;
11313;SDS011;5712;48.858;9.206;2022-10-16T13:28:27;2.53;;;1.50;;
11313;SDS011;5712;48.858;9.206;2022-10-16T13:30:56;2.60;;;1.30;;
11313;SDS011;5712;48.858;9.206;2022-10-16T13:33:27;1.83;;;1.50;;
11313;SDS011;5712;48.858;9.206;2022-10-16T13:35:58;1.27;;;1.17;;
11313;SDS011;5712;48.858;9.206;2022-10-16T13:38:26;1.80;;;1.40;;
11313;SDS011;5712;48.858;9.206;2022-10-16T13:40:54;1.50;;;1.40;;
11313;SDS011;5712;48.858;9.206;2022-10-16T13:43:25;1.40;;;1.20;;
11313;SDS011;5712;48.858;9.206;2022-10-16T13:45:58;2.50;;;1.40;;
11313;SDS011;5712;48.858;9.206;2022-10-16T13:48:27;1.47;;;1.17;;
11313;SDS011;5712;48.858;9.206;2022-10-16T13:51:00;1.53;;;1.43;;
11313;SDS011;5712;48.858;9.206;2022-10-16T13:53:29;1.33;;;1.23;;
11313;SDS011;5712;48.858;9.206;2022-10-16T13:55:57;1.80;;;1.30;;
11313;SDS011;5712;48.858;9.206;2022-10-16T13:58:26;4.40;;;1.80;;
11313;SDS011;5712;48.858;9.206;2022-10-16T14:00:54;3.33;;;1.60;;
11313;SDS011;5712;48.858;9.206;2022-10-16T14:03:23;3.03;;;1.83;;
11313;SDS011;5712;48.858;9.206;2022-10-16T14:05:51;1.50;;;1.40;;
11313;SDS011;5712;48.858;9.206;2022-10-16T14:08:21;1.40;;;1.30;;
11313;SDS011;5712;48.858;9.206;2022-10-16T14:10:50;1.30;;;1.20;;
11313;SDS011;5712;48.858;9.206;2022-10-16T14:13:19;1.57;;;1.30;;
11313;SDS011;5712;48.858;9.206;2022-10-16T14:15:51;1.43;;;1.27;;
11313;SDS011;5712;48.858;9.206;2022-10-16T14:18:20;2.57;;;1.53;;
11313;SDS011;5712;48.858;9.206;2022-10-16T14:20:49;1.70;;;1.60;;
11313;SDS011;5712;48.858;9.206;2022-10-16T14:23:20;1.90;;;1.80;;
11313;SDS011;5712;48.858;9.206;2022-10-16T14:25:48;2.20;;;1.70;;
11313;SDS011;5712;48.858;9.206;2022-10-16T14:28:16;2.27;;;2.00;;
11313;SDS011;5712;48.858;9.206;2022-10-16T14:30:49;1.83;;;1.57;;
11313;SDS011;5712;48.858;9.206;2022-10-16T14:33:20;2.00;;;1.90;;
11313;SDS011;5712;48.858;9.206;2022-10-16T14:35:58;2.93;;;1.80;;
11313;SDS011;5712;48.858;9.206;2022-10-16T14:38:28;2.90;;;2.10;;
11313;SDS011;5712;48.858;9.206;2022-10-16T14:40:56;2.63;;;2.00;;
11313;SDS011;5712;48.858;9.206;2022-10-16T14:43:26;2.63;;;2.00;;
11313;SDS011;5712;48.858;9.206;2022-10-16T14:46:00;1.87;;;1.60;;
11313;SDS011;5712;48.858;9.206;2022-10-16T14:48:29;2.03;;;1.83;;
11313;SDS011;5712;48.858;9.206;2022-10-16T14:50:56;2.20;;;1.60;;
11313;SDS011;5712;48.858;9.206;2022-10-16T14:53:22;1.73;;;1.40;;
11313;SDS011;5712;48.858;9.206;2022-10-16T14:55:49;1.93;;;1.60;;
11313;SDS011;5712;48.858;9.206;2022-10-16T14:58:17;1.40;;;1.30;;
11313;SDS011;5712;48.858;9.206;2022-10-16T15:00:46;1.73;;;1.50;;
11313;SDS011;5712;48.858;9.206;2022-10-16T15:03:14;2.03;;;1.70;;
11313;SDS011;5712;48.858;9.206;2022-10-16T15:05:41;1.77;;;1.50;;
11313;SDS011;5712;48.858;9.206;2022-10-16T15:08:08;1.77;;;1.43;;
11313;SDS011;5712;48.858;9.206;2022-10-16T15:10:38;1.60;;;1.50;;
11313;SDS011;5712;48.858;9.206;2022-10-16T15:13:08;1.50;;;1.40;;
11313;SDS011;5712;48.858;9.206;2022-10-16T15:15:38;1.97;;;1.50;;
11313;SDS011;5712;48.858;9.206;2022-10-16T15:18:09;2.63;;;1.60;;
11313;SDS011;5712;48.858;9.206;2022-10-16T15:20:38;1.73;;;1.60;;
11313;SDS011;5712;48.858;9.206;2022-10-16T15:23:06;2.17;;;1.70;;
11313;SDS011;5712;48.858;9.206;2022-10-16T15:25:41;1.40;;;1.30;;